createdAt,value
2023-03-25T00:01:26.170Z,100106.45
2023-03-25T00:03:54.624Z,100105.08
2023-03-25T00:06:22.793Z,100105.25
2023-03-25T00:08:52.099Z,100106.80
2023-03-25T00:11:20.500Z,100104.73
2023-03-25T00:13:48.942Z,100104.91
2023-03-25T00:16:25.844Z,100102.14
2023-03-25T00:18:54.268Z,100099.56
2023-03-25T00:21:23.550Z,100097.17
2023-03-25T00:23:51.715Z,100095.79
2023-03-25T00:26:21.497Z,100096.32
2023-03-25T00:28:49.748Z,100094.92
2023-03-25T00:31:19.427Z,100092.02
2023-03-25T00:33:50.958Z,100091.15
2023-03-25T00:36:22.669Z,100090.61
2023-03-25T00:38:51.349Z,100090.94
2023-03-25T00:41:25.716Z,100091.11
2023-03-25T00:43:56.138Z,100090.41
2023-03-25T00:46:24.664Z,100092.31
2023-03-25T00:48:55.666Z,100093.69
2023-03-25T00:51:31.389Z,100093.85
2023-03-25T00:54:03.555Z,100088.16
2023-03-25T00:56:34.294Z,100091.61
2023-03-25T00:59:02.626Z,100094.72
2023-03-25T01:01:31.213Z,100091.45
2023-03-25T01:04:00.829Z,100087.48
2023-03-25T01:06:30.160Z,100080.42
2023-03-25T01:08:59.687Z,100076.63
2023-03-25T01:11:34.780Z,100078.55
2023-03-25T01:14:03.868Z,100077.19
2023-03-25T01:16:32.690Z,100074.27
2023-03-25T01:19:01.079Z,100079.27
2023-03-25T01:21:29.622Z,100080.16
2023-03-25T01:23:57.758Z,100082.40
2023-03-25T01:26:25.970Z,100083.11
2023-03-25T01:28:54.431Z,100082.92
2023-03-25T01:31:31.944Z,100083.79
2023-03-25T01:34:00.796Z,100083.81
2023-03-25T01:36:32.126Z,100080.55
2023-03-25T01:39:01.654Z,100082.62
2023-03-25T01:41:39.099Z,100087.62
2023-03-25T01:44:19.796Z,100085.91
2023-03-25T01:46:49.358Z,100086.42
2023-03-25T01:49:30.443Z,100084.70
2023-03-25T01:52:01.548Z,100083.67
2023-03-25T01:54:30.038Z,100086.77
2023-03-25T01:56:58.350Z,100084.55
2023-03-25T01:59:27.295Z,100080.42
2023-03-25T02:01:55.617Z,100085.08
2023-03-25T02:04:47.308Z,100080.61
2023-03-25T02:07:16.732Z,100081.13
2023-03-25T02:09:45.413Z,100073.74
2023-03-25T02:12:13.995Z,100068.93
2023-03-25T02:14:46.225Z,100070.65
2023-03-25T02:17:22.746Z,100069.96
2023-03-25T02:20:09.471Z,100075.10
2023-03-25T02:23:07.807Z,100071.14
2023-03-25T02:25:46.216Z,100073.20
2023-03-25T02:28:25.710Z,100071.99
2023-03-25T02:31:00.210Z,100071.65
2023-03-25T02:34:00.982Z,100072.84
2023-03-25T02:36:48.981Z,100078.70
2023-03-25T02:39:20.326Z,100075.42
2023-03-25T02:41:53.757Z,100072.33
2023-03-25T02:44:29.908Z,100068.89
2023-03-25T02:46:59.697Z,100067.00
2023-03-25T02:49:31.607Z,100065.27
2023-03-25T02:52:01.228Z,100063.91
2023-03-25T02:54:29.587Z,100062.19
2023-03-25T02:56:57.824Z,100063.21
2023-03-25T02:59:33.441Z,100063.22
2023-03-25T03:02:02.532Z,100059.96
2023-03-25T03:04:31.455Z,100062.02
2023-03-25T03:06:59.813Z,100064.27
2023-03-25T03:09:42.752Z,100065.98
2023-03-25T03:12:14.439Z,100066.32
2023-03-25T03:15:03.364Z,100068.04
2023-03-25T03:17:58.746Z,100064.25
2023-03-25T03:20:32.997Z,100072.15
2023-03-25T03:23:14.959Z,100069.05
2023-03-25T03:25:53.912Z,100065.80
2023-03-25T03:28:25.508Z,100063.40
2023-03-25T03:30:59.785Z,100067.35
2023-03-25T03:33:41.181Z,100065.97
2023-03-25T03:36:10.727Z,100067.87
2023-03-25T03:38:40.513Z,100063.91
2023-03-25T03:41:10.041Z,100067.34
2023-03-25T03:43:49.137Z,100072.66
2023-03-25T03:46:37.820Z,100076.61
2023-03-25T03:49:07.359Z,100075.75
2023-03-25T03:51:36.664Z,100075.39
2023-03-25T03:54:06.379Z,100074.36
2023-03-25T03:56:37.549Z,100080.89
2023-03-25T03:59:11.376Z,100080.04
2023-03-25T04:01:47.990Z,100078.83
2023-03-25T04:04:21.179Z,100079.00
2023-03-25T04:06:57.054Z,100078.98
2023-03-25T04:09:27.282Z,100080.20
2023-03-25T04:11:56.988Z,100080.20
2023-03-25T04:14:25.668Z,100079.68
2023-03-25T04:16:54.819Z,100082.59
2023-03-25T04:19:23.929Z,100079.33
2023-03-25T04:21:52.413Z,100077.94
2023-03-25T04:24:20.972Z,100078.80
2023-03-25T04:26:50.032Z,100074.16
2023-03-25T04:29:20.433Z,100078.11
2023-03-25T04:31:50.123Z,100075.55
2023-03-25T04:34:20.717Z,100080.19
2023-03-25T04:36:51.133Z,100081.73
2023-03-25T04:39:22.749Z,100078.65
2023-03-25T04:41:54.108Z,100073.84
2023-03-25T04:44:23.748Z,100080.55
2023-03-25T04:46:51.999Z,100080.04
2023-03-25T04:49:21.378Z,100079.87
2023-03-25T04:51:51.658Z,100081.23
2023-03-25T04:54:23.853Z,100084.83
2023-03-25T04:56:52.743Z,100082.93
2023-03-25T04:59:24.500Z,100090.30
2023-03-25T05:01:52.903Z,100088.39
2023-03-25T05:04:21.705Z,100088.22
2023-03-25T05:06:51.509Z,100082.37
2023-03-25T05:09:22.282Z,100082.02
2023-03-25T05:11:50.969Z,100084.77
2023-03-25T05:14:20.831Z,100084.77
2023-03-25T05:16:49.359Z,100078.77
2023-03-25T05:19:19.312Z,100080.48
2023-03-25T05:21:48.721Z,100078.41
2023-03-25T05:24:17.639Z,100080.48
2023-03-25T05:26:45.846Z,100078.75
2023-03-25T05:29:14.802Z,100078.40
2023-03-25T05:31:44.811Z,100082.55
2023-03-25T05:34:18.520Z,100079.45
2023-03-25T05:36:46.759Z,100079.63
2023-03-25T05:39:15.503Z,100082.39
2023-03-25T05:41:46.224Z,100082.22
2023-03-25T05:44:15.148Z,100080.33
2023-03-25T05:46:44.309Z,100080.50
2023-03-25T05:49:12.668Z,100076.20
2023-03-25T05:51:42.309Z,100075.19
2023-03-25T05:54:11.942Z,100077.78
2023-03-25T05:56:41.681Z,100080.88
2023-03-25T05:59:10.684Z,100082.61
2023-03-25T06:01:39.539Z,100082.27
2023-03-25T06:04:16.988Z,100081.23
2023-03-25T06:06:47.795Z,100076.59
2023-03-25T06:09:18.021Z,100077.77
2023-03-25T06:11:53.586Z,100080.69
2023-03-25T06:14:25.802Z,100074.32
2023-03-25T06:16:57.006Z,100073.45
2023-03-25T06:19:26.741Z,100072.77
2023-03-25T06:22:01.062Z,100073.80
2023-03-25T06:24:37.201Z,100076.59
2023-03-25T06:27:07.143Z,100079.16
2023-03-25T06:29:37.401Z,100087.73
2023-03-25T06:32:05.806Z,100085.33
2023-03-25T06:34:35.404Z,100085.17
2023-03-25T06:37:04.029Z,100083.29
2023-03-25T06:39:33.935Z,100087.76
2023-03-25T06:42:07.553Z,100089.98
2023-03-25T06:44:47.957Z,100085.70
2023-03-25T06:47:39.816Z,100075.90
2023-03-25T06:50:08.351Z,100074.35
2023-03-25T06:52:37.407Z,100081.73
2023-03-25T06:55:06.252Z,100080.89
2023-03-25T06:57:35.096Z,100083.27
2023-03-25T07:00:05.978Z,100085.34
2023-03-25T07:02:48.318Z,100084.46
2023-03-25T07:05:16.624Z,100084.30
2023-03-25T07:07:45.932Z,100084.63
2023-03-25T07:10:14.556Z,100082.23
2023-03-25T07:12:42.753Z,100080.70
2023-03-25T07:15:16.920Z,100079.50
2023-03-25T07:17:49.404Z,100079.35
2023-03-25T07:20:18.193Z,100082.95
2023-03-25T07:22:50.069Z,100086.91
2023-03-25T07:25:18.408Z,100089.50
2023-03-25T07:27:52.706Z,100091.56
2023-03-25T07:30:21.156Z,100096.20
2023-03-25T07:32:49.274Z,100090.02
2023-03-25T07:35:17.476Z,100086.25
2023-03-25T07:37:45.902Z,100085.73
2023-03-25T07:40:14.008Z,100083.34
2023-03-25T07:42:44.683Z,100084.02
2023-03-25T07:45:44.363Z,100082.85
2023-03-25T07:48:16.508Z,100075.46
2023-03-25T07:50:45.905Z,100083.19
2023-03-25T07:53:16.186Z,100079.92
2023-03-25T07:55:45.919Z,100073.91
2023-03-25T07:58:14.349Z,100072.54
2023-03-25T08:00:42.755Z,100075.98
2023-03-25T08:03:12.439Z,100077.86
2023-03-25T08:05:46.878Z,100072.02
2023-03-25T08:08:15.735Z,100071.65
2023-03-25T08:10:44.252Z,100071.83
2023-03-25T08:13:12.947Z,100069.73
2023-03-25T08:15:41.705Z,100068.70
2023-03-25T08:18:10.019Z,100071.95
2023-03-25T08:20:41.438Z,100073.14
2023-03-25T08:23:10.750Z,100073.48
2023-03-25T08:25:39.171Z,100076.40
2023-03-25T08:28:07.470Z,100076.56
2023-03-25T08:30:39.095Z,100073.64
2023-03-25T08:33:07.794Z,100074.48
2023-03-25T08:35:56.917Z,100067.58
2023-03-25T08:38:25.699Z,100068.26
2023-03-25T08:40:56.012Z,100069.80
2023-03-25T08:43:25.643Z,100059.13
2023-03-25T08:45:58.139Z,100062.40
2023-03-25T08:48:26.499Z,100057.91
2023-03-25T08:50:54.779Z,100051.52
2023-03-25T08:53:24.337Z,100051.67
2023-03-25T08:55:57.203Z,100049.23
2023-03-25T08:58:25.733Z,100050.71
2023-03-25T09:00:56.108Z,100044.83
2023-03-25T09:03:24.587Z,100044.80
2023-03-25T09:05:55.951Z,100045.09
2023-03-25T09:08:24.594Z,100049.35
2023-03-25T09:10:54.819Z,100050.69
2023-03-25T09:13:26.811Z,100052.69
2023-03-25T09:15:55.176Z,100052.13
2023-03-25T09:18:28.122Z,100052.43
2023-03-25T09:21:00.397Z,100047.55
2023-03-25T09:23:29.128Z,100050.92
2023-03-25T09:26:02.560Z,100049.81
2023-03-25T09:28:31.070Z,100047.18
2023-03-25T09:31:06.171Z,100042.51
2023-03-25T09:33:34.462Z,100039.56
2023-03-25T09:36:03.806Z,100039.71
2023-03-25T09:38:39.388Z,100041.09
2023-03-25T09:41:36.691Z,100042.95
2023-03-25T09:44:16.685Z,100041.70
2023-03-25T09:46:45.150Z,100037.01
2023-03-25T09:49:14.824Z,100036.27
2023-03-25T09:51:43.082Z,100033.80
2023-03-25T09:54:27.086Z,100030.51
2023-03-25T09:56:55.582Z,100031.53
2023-03-25T09:59:24.239Z,100029.97
2023-03-25T10:01:55.563Z,100024.24
2023-03-25T10:04:23.796Z,100029.25
2023-03-25T10:07:02.760Z,100021.61
2023-03-25T10:09:38.023Z,100026.05
2023-03-25T10:12:18.483Z,100025.63
2023-03-25T10:15:07.309Z,100022.96
2023-03-25T10:17:56.888Z,100019.27
2023-03-25T10:20:29.331Z,100018.70
2023-03-25T10:23:00.824Z,100017.25
2023-03-25T10:25:31.059Z,100016.78
2023-03-25T10:27:59.486Z,100014.30
2023-03-25T10:30:32.720Z,100010.95
2023-03-25T10:33:03.553Z,100008.67
2023-03-25T10:35:36.265Z,100004.46
2023-03-25T10:38:13.893Z,100006.27
2023-03-25T10:40:50.470Z,100000.98
2023-03-25T10:43:25.763Z,99996.21
2023-03-25T10:45:58.422Z,99987.23
2023-03-25T10:48:30.959Z,99983.59
2023-03-25T10:51:02.845Z,99985.65
2023-03-25T10:53:31.598Z,99981.67
2023-03-25T10:56:02.642Z,99983.40
2023-03-25T10:58:31.366Z,99975.81
2023-03-25T11:01:00.136Z,99974.48
2023-03-25T11:03:54.710Z,99966.09
2023-03-25T11:06:26.816Z,99962.13
2023-03-25T11:09:25.780Z,99958.91
2023-03-25T11:11:54.570Z,99955.04
2023-03-25T11:14:26.384Z,99955.04
2023-03-25T11:16:59.822Z,99953.23
2023-03-25T11:19:30.608Z,99945.18
2023-03-25T11:21:59.576Z,99941.39
2023-03-25T11:24:30.562Z,99941.36
2023-03-25T11:26:59.532Z,99940.46
2023-03-25T11:29:33.200Z,99938.38
2023-03-25T11:32:08.446Z,99936.60
2023-03-25T11:34:42.556Z,99938.25
2023-03-25T11:37:22.284Z,99937.30
2023-03-25T11:39:51.942Z,99933.66
2023-03-25T11:42:22.570Z,99931.23
2023-03-25T11:44:51.995Z,99931.02
2023-03-25T11:47:25.717Z,99920.68
2023-03-25T11:49:54.158Z,99915.48
2023-03-25T11:52:23.327Z,99913.45
2023-03-25T11:54:55.489Z,99911.47
2023-03-25T11:57:24.908Z,99906.40
2023-03-25T12:00:15.281Z,99903.67
2023-03-25T12:03:03.213Z,99900.72
2023-03-25T12:05:31.856Z,99905.02
2023-03-25T12:08:16.330Z,99903.81
2023-03-25T12:11:03.957Z,99899.04
2023-03-25T12:13:50.570Z,99893.73
2023-03-25T12:16:25.761Z,99895.08
2023-03-25T12:19:12.386Z,99893.06
2023-03-25T12:22:08.241Z,99886.84
2023-03-25T12:24:37.013Z,99884.83
2023-03-25T12:27:24.063Z,99878.52
2023-03-25T12:29:56.024Z,99875.67
2023-03-25T12:32:35.717Z,99873.44
2023-03-25T12:35:07.172Z,99870.17
2023-03-25T12:37:35.753Z,99866.29
2023-03-25T12:40:19.788Z,99867.91
2023-03-25T12:42:57.314Z,99867.84
2023-03-25T12:45:47.794Z,99855.66
2023-03-25T12:48:40.475Z,99852.10
2023-03-25T12:51:11.339Z,99849.58
2023-03-25T12:53:46.401Z,99850.92
2023-03-25T12:56:17.635Z,99850.44
2023-03-25T12:58:57.478Z,99849.13
2023-03-25T13:01:44.459Z,99847.56
2023-03-25T13:04:19.239Z,99847.95
2023-03-25T13:07:04.717Z,99843.37
2023-03-25T13:09:38.397Z,99837.93
2023-03-25T13:12:11.560Z,99833.42
2023-03-25T13:14:41.650Z,99832.75
2023-03-25T13:17:17.925Z,99830.27
2023-03-25T13:19:47.223Z,99822.64
2023-03-25T13:22:19.545Z,99816.90
2023-03-25T13:24:51.657Z,99811.14
2023-03-25T13:27:19.965Z,99810.63
2023-03-25T13:29:55.042Z,99806.52
2023-03-25T13:32:29.359Z,99805.80
2023-03-25T13:34:58.412Z,99801.49
2023-03-25T13:37:29.657Z,99792.02
2023-03-25T13:40:10.993Z,99793.95
2023-03-25T13:42:45.500Z,99797.52
2023-03-25T13:45:21.001Z,99794.33
2023-03-25T13:47:54.933Z,99791.09
2023-03-25T13:50:27.205Z,99788.29
2023-03-25T13:53:03.016Z,99787.02
2023-03-25T13:55:52.643Z,99787.67
2023-03-25T13:58:39.190Z,99783.63
2023-03-25T14:01:18.216Z,99779.67
2023-03-25T14:03:58.730Z,99776.14
2023-03-25T14:06:45.945Z,99771.21
2023-03-25T14:09:14.143Z,99767.68
2023-03-25T14:12:01.851Z,99763.96
2023-03-25T14:14:30.273Z,99764.12
2023-03-25T14:16:58.762Z,99761.18
2023-03-25T14:19:32.165Z,99752.92
2023-03-25T14:22:01.086Z,99754.42
2023-03-25T14:24:31.703Z,99755.40
2023-03-25T14:27:01.183Z,99759.80
2023-03-25T14:29:32.601Z,99752.58
2023-03-25T14:32:05.405Z,99750.08
2023-03-25T14:34:34.404Z,99748.13
2023-03-25T14:37:09.700Z,99745.70
2023-03-25T14:39:38.285Z,99748.03
2023-03-25T14:42:06.774Z,99745.14
2023-03-25T14:44:36.733Z,99745.10
2023-03-25T14:47:16.406Z,99744.08
2023-03-25T14:49:50.930Z,99739.94
2023-03-25T14:52:20.875Z,99733.70
2023-03-25T14:54:53.272Z,99734.52
2023-03-25T14:57:25.539Z,99728.10
2023-03-25T15:00:01.631Z,99722.40
2023-03-25T15:02:31.438Z,99725.25
2023-03-25T15:05:03.768Z,99729.17
2023-03-25T15:07:43.546Z,99724.37
2023-03-25T15:10:25.651Z,99725.13
2023-03-25T15:13:00.545Z,99727.09
2023-03-25T15:15:33.559Z,99727.08
2023-03-25T15:18:02.096Z,99729.20
2023-03-25T15:20:35.949Z,99725.58
2023-03-25T15:23:19.888Z,99727.69
2023-03-25T15:25:51.700Z,99720.25
2023-03-25T15:28:23.018Z,99717.59
2023-03-25T15:30:55.307Z,99716.85
2023-03-25T15:33:24.804Z,99715.96
2023-03-25T15:36:11.828Z,99710.21
2023-03-25T15:38:41.908Z,99710.89
2023-03-25T15:41:13.543Z,99708.21
2023-03-25T15:43:59.649Z,99710.58
2023-03-25T15:46:33.743Z,99706.59
2023-03-25T15:49:21.754Z,99712.42
2023-03-25T15:51:52.759Z,99717.23
2023-03-25T15:54:23.924Z,99732.17
2023-03-25T15:56:52.996Z,99728.45
2023-03-25T15:59:40.123Z,99720.23
2023-03-25T16:02:24.391Z,99715.11
2023-03-25T16:04:52.716Z,99713.93
2023-03-25T16:07:21.056Z,99719.26
2023-03-25T16:09:50.266Z,99724.23
2023-03-25T16:12:23.065Z,99727.79
2023-03-25T16:14:51.945Z,99714.80
2023-03-25T16:17:20.790Z,99719.39
2023-03-25T16:19:51.013Z,99716.55
2023-03-25T16:22:28.462Z,99719.59
2023-03-25T16:24:57.293Z,99719.52
2023-03-25T16:27:36.936Z,99726.16
2023-03-25T16:30:25.674Z,99719.19
2023-03-25T16:32:54.148Z,99723.75
2023-03-25T16:35:23.978Z,99724.84
2023-03-25T16:37:54.965Z,99722.45
2023-03-25T16:40:26.722Z,99729.38
2023-03-25T16:42:55.825Z,99727.37
2023-03-25T16:45:24.213Z,99730.83
2023-03-25T16:47:53.307Z,99731.74
2023-03-25T16:50:21.629Z,99729.70
2023-03-25T16:52:49.933Z,99731.63
2023-03-25T16:55:29.309Z,99739.77
2023-03-25T16:57:59.575Z,99738.41
2023-03-25T17:00:36.650Z,99731.39
2023-03-25T17:03:06.230Z,99733.27
2023-03-25T17:05:34.736Z,99735.17
2023-03-25T17:08:04.336Z,99731.23
2023-03-25T17:10:40.734Z,99729.52
2023-03-25T17:13:16.060Z,99728.34
2023-03-25T17:15:49.271Z,99732.80
2023-03-25T17:18:17.828Z,99727.13
2023-03-25T17:20:46.790Z,99726.63
2023-03-25T17:23:22.371Z,99723.20
2023-03-25T17:25:50.725Z,99727.37
2023-03-25T17:28:43.298Z,99726.21
2023-03-25T17:31:24.839Z,99732.63
2023-03-25T17:33:54.194Z,99731.46
2023-03-25T17:36:23.436Z,99730.83
2023-03-25T17:38:53.551Z,99736.02
2023-03-25T17:41:21.878Z,99735.33
2023-03-25T17:43:51.348Z,99736.88
2023-03-25T17:46:27.124Z,99732.57
2023-03-25T17:48:57.764Z,99731.02
2023-03-25T17:51:26.516Z,99732.87
2023-03-25T17:53:56.240Z,99740.05
2023-03-25T17:56:25.675Z,99733.64
2023-03-25T17:58:59.949Z,99734.45
2023-03-25T18:01:29.199Z,99725.48
2023-03-25T18:03:57.566Z,99725.43
2023-03-25T18:06:26.074Z,99726.96
2023-03-25T18:08:54.383Z,99727.27
2023-03-25T18:11:22.680Z,99727.95
2023-03-25T18:13:54.465Z,99728.27
2023-03-25T18:16:23.190Z,99726.02
2023-03-25T18:18:52.094Z,99728.40
2023-03-25T18:21:21.213Z,99727.52
2023-03-25T18:23:50.660Z,99723.72
2023-03-25T18:26:18.994Z,99724.25
2023-03-25T18:28:47.414Z,99724.41
2023-03-25T18:31:17.752Z,99723.05
2023-03-25T18:33:46.852Z,99717.02
2023-03-25T18:36:15.432Z,99713.55
2023-03-25T18:38:43.903Z,99711.30
2023-03-25T18:41:14.463Z,99713.23
2023-03-25T18:43:43.839Z,99713.23
2023-03-25T18:46:14.315Z,99710.70
2023-03-25T18:48:42.812Z,99708.13
2023-03-25T18:51:12.086Z,99704.70
2023-03-25T18:53:40.794Z,99704.56
2023-03-25T18:56:09.297Z,99702.54
2023-03-25T18:58:38.275Z,99703.77
2023-03-25T19:01:10.494Z,99699.69
2023-03-25T19:03:40.159Z,99698.17
2023-03-25T19:06:13.089Z,99699.91
2023-03-25T19:08:43.716Z,99705.95
2023-03-25T19:11:20.830Z,99704.42
2023-03-25T19:13:58.546Z,99700.48
2023-03-25T19:16:27.731Z,99705.99
2023-03-25T19:18:56.340Z,99703.05
2023-03-25T19:21:26.094Z,99699.79
2023-03-25T19:23:54.476Z,99704.27
2023-03-25T19:26:22.798Z,99701.52
2023-03-25T19:28:52.370Z,99703.44
2023-03-25T19:31:20.711Z,99707.58
2023-03-25T19:33:53.149Z,99695.88
2023-03-25T19:36:23.209Z,99694.15
2023-03-25T19:38:53.319Z,99697.94
2023-03-25T19:41:24.424Z,99697.23
2023-03-25T19:43:52.618Z,99693.29
2023-03-25T19:46:21.447Z,99694.84
2023-03-25T19:48:50.176Z,99695.71
2023-03-25T19:51:18.618Z,99700.20
2023-03-25T19:53:47.778Z,99695.23
2023-03-25T19:56:16.546Z,99703.52
2023-03-25T19:58:44.912Z,99700.60
2023-03-25T20:01:13.375Z,99697.85
2023-03-25T20:03:43.261Z,99704.40
2023-03-25T20:06:11.607Z,99703.03
2023-03-25T20:08:40.082Z,99704.61
2023-03-25T20:11:12.287Z,99707.76
2023-03-25T20:13:42.895Z,99708.51
2023-03-25T20:16:12.263Z,99703.91
2023-03-25T20:18:41.601Z,99703.29
2023-03-25T20:21:14.163Z,99703.02
2023-03-25T20:23:42.706Z,99699.45
2023-03-25T20:26:11.068Z,99697.24
2023-03-25T20:28:42.156Z,99685.95
2023-03-25T20:31:18.562Z,99692.19
2023-03-25T20:33:47.115Z,99689.48
2023-03-25T20:36:15.723Z,99686.58
2023-03-25T20:38:56.101Z,99686.63
2023-03-25T20:41:26.324Z,99682.53
2023-03-25T20:43:54.562Z,99670.51
2023-03-25T20:46:27.678Z,99670.70
2023-03-25T20:48:56.605Z,99669.16
2023-03-25T20:51:25.675Z,99663.50
2023-03-25T20:53:54.358Z,99661.79
2023-03-25T20:56:22.668Z,99661.27
2023-03-25T20:58:51.163Z,99658.35
2023-03-25T21:01:21.474Z,99658.85
2023-03-25T21:03:52.134Z,99654.90
2023-03-25T21:06:25.441Z,99648.71
2023-03-25T21:08:55.980Z,99645.26
2023-03-25T21:11:24.487Z,99637.14
2023-03-25T21:13:53.194Z,99642.81
2023-03-25T21:16:21.555Z,99640.91
2023-03-25T21:18:50.472Z,99638.83
2023-03-25T21:21:20.075Z,99635.04
2023-03-25T21:23:49.516Z,99635.73
2023-03-25T21:26:18.947Z,99635.23
2023-03-25T21:28:48.814Z,99626.80
2023-03-25T21:31:20.938Z,99629.20
2023-03-25T21:33:51.310Z,99625.26
2023-03-25T21:36:24.494Z,99625.59
2023-03-25T21:38:58.785Z,99618.04
2023-03-25T21:41:27.321Z,99611.86
2023-03-25T21:43:55.773Z,99607.60
2023-03-25T21:46:27.666Z,99616.03
2023-03-25T21:48:58.814Z,99611.55
2023-03-25T21:51:30.750Z,99615.67
2023-03-25T21:53:59.882Z,99614.30
2023-03-25T21:56:31.112Z,99614.11
2023-03-25T21:59:02.050Z,99609.66
2023-03-25T22:01:32.660Z,99612.04
2023-03-25T22:04:01.417Z,99611.16
2023-03-25T22:06:31.073Z,99608.05
2023-03-25T22:09:01.308Z,99608.89
2023-03-25T22:11:29.796Z,99606.66
2023-03-25T22:13:58.032Z,99600.99
2023-03-25T22:16:28.317Z,99595.50
2023-03-25T22:18:56.732Z,99593.45
2023-03-25T22:21:33.382Z,99591.73
2023-03-25T22:24:02.553Z,99590.88
2023-03-25T22:26:31.916Z,99586.77
2023-03-25T22:29:06.994Z,99584.36
2023-03-25T22:31:39.819Z,99584.52
2023-03-25T22:34:12.147Z,99585.03
2023-03-25T22:36:49.677Z,99575.76
2023-03-25T22:39:19.259Z,99574.73
2023-03-25T22:41:47.785Z,99575.98
2023-03-25T22:44:18.288Z,99574.61
2023-03-25T22:46:48.214Z,99574.13
2023-03-25T22:49:16.730Z,99572.77
2023-03-25T22:51:45.026Z,99569.52
2023-03-25T22:54:13.766Z,99566.77
2023-03-25T22:56:43.838Z,99568.86
2023-03-25T22:59:12.762Z,99566.99
2023-03-25T23:01:41.862Z,99567.00
2023-03-25T23:04:10.256Z,99561.87
2023-03-25T23:06:38.474Z,99559.13
2023-03-25T23:09:10.102Z,99563.09
2023-03-25T23:11:39.437Z,99557.92
2023-03-25T23:14:08.734Z,99555.38
2023-03-25T23:16:39.205Z,99555.24
2023-03-25T23:19:09.590Z,99552.01
2023-03-25T23:21:40.713Z,99544.65
2023-03-25T23:24:09.288Z,99540.54
2023-03-25T23:26:39.188Z,99533.52
2023-03-25T23:29:09.367Z,99529.95
2023-03-25T23:31:41.656Z,99524.30
2023-03-25T23:34:11.372Z,99521.76
2023-03-25T23:36:40.962Z,99515.96
2023-03-25T23:39:10.911Z,99513.74
2023-03-25T23:41:44.035Z,99515.66
2023-03-25T23:44:13.364Z,99512.94
2023-03-25T23:46:46.641Z,99511.04
2023-03-25T23:49:18.153Z,99513.62
2023-03-25T23:51:47.240Z,99509.18
2023-03-25T23:54:15.577Z,99503.86
2023-03-25T23:56:43.928Z,99502.34
2023-03-25T23:59:13.781Z,99494.96
